Lady Nur — 3FFE2 — position and weather

sailwx.info

Track history (hours):
 
Tides and Currents Weather Stations Pressure Air Temp Water Temp Dewpoint Dewpoint Depression Visibility Wind Speed Wind Dir Waves Ship Positions

Lady Nur

Last reported at 2016-Dec-06 22:28 UTC. Time now 2016-Dec-09 19:50 UTC.
Position N 35°55' W 005°15'.

Length 82 m; draft 3.3 m.

Type: Cargo ship. MMSI: 373237000.

Date/timePositionNaut miles runAvg speedWind from/ knotsBaromVisibWave heightAir tempDewpointWater temp
2016-Dec-06 22:28N 35°55' W 005°15'9 9.4
2016-Dec-06 21:33N 35°57' W 005°26'9 9.1
2016-Dec-06 20:33N 35°56' W 005°37'  
2016-Dec-02 15:07N 37°27' W 000°45'182 7.7
2016-Dec-01 15:33N 38°56' E 002°38'19 8.6
2016-Dec-01 13:18N 39°04' E 003°00'7 8.6
2016-Dec-01 12:32N 39°06' E 003°08'9 8.7
2016-Dec-01 11:27N 39°10' E 003°19'  
2016-Nov-28 02:18N 43°35' E 008°43'6 8.7
2016-Nov-28 01:33N 43°42' E 008°45'9 8.7
2016-Nov-28 00:33N 43°50' E 008°46'9 8.7
2016-Nov-27 23:33N 43°59' E 008°48'9 8.7
2016-Nov-27 22:33N 44°07' E 008°50'9 8.9
2016-Nov-27 21:33N 44°16' E 008°52'8 8.0
2016-Nov-27 20:33N 44°24' E 008°52'0 0.2
2016-Nov-27 19:13N 44°24' E 008°52'0 0.0
2016-Nov-27 06:10N 44°24' E 008°52'0 0.0
2016-Nov-27 05:28N 44°24' E 008°52'0 0.0
2016-Nov-27 04:16N 44°24' E 008°52'  
Track history (hours):
 
Tides and Currents Weather Stations Pressure Air Temp Water Temp Dewpoint Dewpoint Depression Visibility Wind Speed Wind Dir Waves Ship Positions

Lady Nur

Last reported at 2016-Dec-06 22:28 UTC. Time now 2016-Dec-09 19:50 UTC.
Position N 35°55' W 005°15'.

Length 82 m; draft 3.3 m.

Type: Cargo ship. MMSI: 373237000.

Date/timePositionNaut miles runAvg speedWind from/ knotsBaromVisibWave heightAir tempDewpointWater temp
2016-Dec-06 22:28N 35°55' W 005°15'9 9.4
2016-Dec-06 21:33N 35°57' W 005°26'9 9.1
2016-Dec-06 20:33N 35°56' W 005°37'  
2016-Dec-02 15:07N 37°27' W 000°45'182 7.7
2016-Dec-01 15:33N 38°56' E 002°38'19 8.6
2016-Dec-01 13:18N 39°04' E 003°00'7 8.6
2016-Dec-01 12:32N 39°06' E 003°08'9 8.7
2016-Dec-01 11:27N 39°10' E 003°19'  
2016-Nov-28 02:18N 43°35' E 008°43'6 8.7
2016-Nov-28 01:33N 43°42' E 008°45'9 8.7
2016-Nov-28 00:33N 43°50' E 008°46'9 8.7
2016-Nov-27 23:33N 43°59' E 008°48'9 8.7
2016-Nov-27 22:33N 44°07' E 008°50'9 8.9
2016-Nov-27 21:33N 44°16' E 008°52'8 8.0
2016-Nov-27 20:33N 44°24' E 008°52'0 0.2
2016-Nov-27 19:13N 44°24' E 008°52'0 0.0
2016-Nov-27 06:10N 44°24' E 008°52'0 0.0
2016-Nov-27 05:28N 44°24' E 008°52'0 0.0
2016-Nov-27 04:16N 44°24' E 008°52'  

Dump ship's entire track history